sensor_id;sensor_type;location;lat;lon;timestamp;pressure;altitude;pressure_sealevel;temperature;humidity
73558;BME280;61829;53.286;10.434;2024-03-22T00:02:55;101712.88;;;9.07;88.17
73558;BME280;61829;53.286;10.434;2024-03-22T00:05:39;101706.47;;;9.08;88.44
73558;BME280;61829;53.286;10.434;2024-03-22T00:08:24;101698.28;;;9.10;88.24
73558;BME280;61829;53.286;10.434;2024-03-22T00:11:09;101693.72;;;9.10;88.36
73558;BME280;61829;53.286;10.434;2024-03-22T00:13:54;101692.72;;;9.11;88.39
73558;BME280;61829;53.286;10.434;2024-03-22T00:16:40;101684.38;;;9.14;87.81
73558;BME280;61829;53.286;10.434;2024-03-22T00:19:24;101679.84;;;9.15;87.82
73558;BME280;61829;53.286;10.434;2024-03-22T00:22:09;101684.06;;;9.17;87.54
73558;BME280;61829;53.286;10.434;2024-03-22T00:28:42;101673.97;;;9.19;87.69
73558;BME280;61829;53.286;10.434;2024-03-22T00:31:27;101669.47;;;9.20;87.66
73558;BME280;61829;53.286;10.434;2024-03-22T00:34:12;101666.59;;;9.21;87.70
73558;BME280;61829;53.286;10.434;2024-03-22T00:36:56;101666.47;;;9.23;87.89
73558;BME280;61829;53.286;10.434;2024-03-22T00:39:40;101664.44;;;9.25;87.50
73558;BME280;61829;53.286;10.434;2024-03-22T00:42:25;101656.94;;;9.29;87.17
73558;BME280;61829;53.286;10.434;2024-03-22T00:45:09;101641.63;;;9.29;87.51
73558;BME280;61829;53.286;10.434;2024-03-22T00:47:54;101632.22;;;9.33;87.04
73558;BME280;61829;53.286;10.434;2024-03-22T00:50:38;101622.31;;;9.34;87.14
73558;BME280;61829;53.286;10.434;2024-03-22T00:53:23;101612.09;;;9.37;87.18
73558;BME280;61829;53.286;10.434;2024-03-22T00:56:07;101616.34;;;9.40;87.30
73558;BME280;61829;53.286;10.434;2024-03-22T00:58:59;101624.09;;;9.43;86.92
73558;BME280;61829;53.286;10.434;2024-03-22T01:01:44;101622.22;;;9.43;86.59
73558;BME280;61829;53.286;10.434;2024-03-22T01:04:28;101631.84;;;9.46;86.65
73558;BME280;61829;53.286;10.434;2024-03-22T01:07:13;101631.84;;;9.46;86.98
73558;BME280;61829;53.286;10.434;2024-03-22T01:09:57;101622.59;;;9.49;86.95
73558;BME280;61829;53.286;10.434;2024-03-22T01:12:42;101621.59;;;9.50;86.50
73558;BME280;61829;53.286;10.434;2024-03-22T01:15:26;101622.44;;;9.50;86.58
73558;BME280;61829;53.286;10.434;2024-03-22T01:18:11;101606.16;;;9.52;86.69
73558;BME280;61829;53.286;10.434;2024-03-22T01:20:56;101607.22;;;9.67;85.72
73558;BME280;61829;53.286;10.434;2024-03-22T01:23:41;101603.81;;;9.57;86.73
73558;BME280;61829;53.286;10.434;2024-03-22T01:26:25;101600.44;;;9.55;86.46
73558;BME280;61829;53.286;10.434;2024-03-22T01:29:10;101593.22;;;9.55;86.82
73558;BME280;61829;53.286;10.434;2024-03-22T01:31:54;101576.91;;;9.57;86.71
73558;BME280;61829;53.286;10.434;2024-03-22T01:34:39;101564.31;;;9.57;86.73
73558;BME280;61829;53.286;10.434;2024-03-22T01:37:23;101564.31;;;9.57;86.70
73558;BME280;61829;53.286;10.434;2024-03-22T01:40:08;101561.44;;;9.59;86.59
73558;BME280;61829;53.286;10.434;2024-03-22T01:42:56;101561.28;;;9.60;86.31
73558;BME280;61829;53.286;10.434;2024-03-22T01:45:41;101557.63;;;9.70;86.31
73558;BME280;61829;53.286;10.434;2024-03-22T01:52:09;101538.47;;;9.73;85.74
73558;BME280;61829;53.286;10.434;2024-03-22T01:54:54;101524.31;;;9.71;86.01
73558;BME280;61829;53.286;10.434;2024-03-22T01:57:39;101517.41;;;9.68;86.08
73558;BME280;61829;53.286;10.434;2024-03-22T02:00:24;101519.31;;;9.84;85.08
73558;BME280;61829;53.286;10.434;2024-03-22T02:03:08;101507.75;;;9.92;85.24
73558;BME280;61829;53.286;10.434;2024-03-22T02:05:53;101494.28;;;9.92;84.78
73558;BME280;61829;53.286;10.434;2024-03-22T02:08:38;101481.66;;;9.92;84.55
73558;BME280;61829;53.286;10.434;2024-03-22T02:11:26;101481.66;;;9.92;84.68
73558;BME280;61829;53.286;10.434;2024-03-22T02:14:11;101486.00;;;9.85;84.50
73558;BME280;61829;53.286;10.434;2024-03-22T02:16:55;101472.41;;;9.86;85.10
73558;BME280;61829;53.286;10.434;2024-03-22T02:19:40;101474.72;;;9.81;85.30
73558;BME280;61829;53.286;10.434;2024-03-22T02:22:26;101451.31;;;9.74;85.73
73558;BME280;61829;53.286;10.434;2024-03-22T02:25:11;101458.75;;;9.72;85.68
73558;BME280;61829;53.286;10.434;2024-03-22T02:27:58;101452.53;;;9.87;85.38
73558;BME280;61829;53.286;10.434;2024-03-22T02:30:43;101453.91;;;9.92;85.38
73558;BME280;61829;53.286;10.434;2024-03-22T02:33:27;101439.44;;;9.93;85.18
73558;BME280;61829;53.286;10.434;2024-03-22T02:36:12;101442.06;;;9.76;86.04
73558;BME280;61829;53.286;10.434;2024-03-22T02:38:57;101445.97;;;9.90;85.75
73558;BME280;61829;53.286;10.434;2024-03-22T02:41:44;101437.72;;;9.83;86.10
73558;BME280;61829;53.286;10.434;2024-03-22T02:44:28;101421.72;;;9.82;86.19
73558;BME280;61829;53.286;10.434;2024-03-22T02:47:13;101430.03;;;9.97;85.59
73558;BME280;61829;53.286;10.434;2024-03-22T02:49:59;101433.38;;;9.82;86.06
73558;BME280;61829;53.286;10.434;2024-03-22T02:52:44;101430.50;;;9.84;85.53
73558;BME280;61829;53.286;10.434;2024-03-22T02:55:28;101433.38;;;9.82;85.74
73558;BME280;61829;53.286;10.434;2024-03-22T02:58:14;101436.41;;;9.96;85.88
73558;BME280;61829;53.286;10.434;2024-03-22T03:00:59;101439.47;;;10.09;84.82
73558;BME280;61829;53.286;10.434;2024-03-22T03:03:44;101446.69;;;10.00;85.15
73558;BME280;61829;53.286;10.434;2024-03-22T03:06:28;101452.75;;;9.94;85.96
73558;BME280;61829;53.286;10.434;2024-03-22T03:09:13;101447.53;;;10.17;85.31
73558;BME280;61829;53.286;10.434;2024-03-22T03:11:57;101433.56;;;10.22;84.74
73558;BME280;61829;53.286;10.434;2024-03-22T03:14:42;101433.41;;;10.23;84.41
73558;BME280;61829;53.286;10.434;2024-03-22T03:17:26;101428.72;;;10.25;84.65
73558;BME280;61829;53.286;10.434;2024-03-22T03:20:11;101431.06;;;10.20;84.85
73558;BME280;61829;53.286;10.434;2024-03-22T03:22:57;101428.84;;;10.24;85.01
73558;BME280;61829;53.286;10.434;2024-03-22T03:25:45;101424.69;;;10.29;84.58
73558;BME280;61829;53.286;10.434;2024-03-22T03:28:30;101414.94;;;10.28;84.69
73558;BME280;61829;53.286;10.434;2024-03-22T03:31:14;101421.00;;;10.30;84.23
73558;BME280;61829;53.286;10.434;2024-03-22T03:33:59;101424.19;;;10.34;84.69
73558;BME280;61829;53.286;10.434;2024-03-22T03:36:43;101418.63;;;10.36;84.28
73558;BME280;61829;53.286;10.434;2024-03-22T03:39:28;101415.75;;;10.37;84.28
73558;BME280;61829;53.286;10.434;2024-03-22T03:42:14;101408.69;;;10.36;84.80
73558;BME280;61829;53.286;10.434;2024-03-22T03:44:58;101394.03;;;10.22;85.23
73558;BME280;61829;53.286;10.434;2024-03-22T03:47:42;101389.81;;;10.11;85.68
73558;BME280;61829;53.286;10.434;2024-03-22T03:50:27;101385.25;;;10.12;86.00
73558;BME280;61829;53.286;10.434;2024-03-22T03:53:11;101389.63;;;10.13;86.02
73558;BME280;61829;53.286;10.434;2024-03-22T03:55:56;101374.97;;;10.24;86.09
73558;BME280;61829;53.286;10.434;2024-03-22T03:58:42;101375.19;;;10.22;86.06
73558;BME280;61829;53.286;10.434;2024-03-22T04:01:26;101367.28;;;10.37;85.43
73558;BME280;61829;53.286;10.434;2024-03-22T04:04:10;101363.41;;;10.40;85.21
73558;BME280;61829;53.286;10.434;2024-03-22T04:06:55;101356.31;;;10.22;85.69
73558;BME280;61829;53.286;10.434;2024-03-22T04:09:39;101357.50;;;10.20;86.12
73558;BME280;61829;53.286;10.434;2024-03-22T04:12:23;101353.63;;;10.22;85.88
73558;BME280;61829;53.286;10.434;2024-03-22T04:15:08;101350.94;;;10.22;86.35
73558;BME280;61829;53.286;10.434;2024-03-22T04:17:56;101334.78;;;10.22;85.99
73558;BME280;61829;53.286;10.434;2024-03-22T04:20:41;101335.41;;;10.24;86.15
73558;BME280;61829;53.286;10.434;2024-03-22T04:23:30;101334.44;;;10.25;86.43
73558;BME280;61829;53.286;10.434;2024-03-22T04:26:14;101328.34;;;10.23;86.62
73558;BME280;61829;53.286;10.434;2024-03-22T04:28:59;101324.66;;;10.24;86.51
73558;BME280;61829;53.286;10.434;2024-03-22T04:31:44;101320.66;;;10.28;86.25
73558;BME280;61829;53.286;10.434;2024-03-22T04:34:47;101320.66;;;10.28;86.30
73558;BME280;61829;53.286;10.434;2024-03-22T04:37:34;101312.38;;;10.30;86.44
73558;BME280;61829;53.286;10.434;2024-03-22T04:40:19;101311.53;;;10.29;86.19
73558;BME280;61829;53.286;10.434;2024-03-22T04:43:03;101296.06;;;10.31;86.14
73558;BME280;61829;53.286;10.434;2024-03-22T04:45:48;101291.16;;;10.35;86.59
73558;BME280;61829;53.286;10.434;2024-03-22T04:48:33;101284.59;;;10.38;86.41
73558;BME280;61829;53.286;10.434;2024-03-22T04:51:17;101279.88;;;10.40;85.99
73558;BME280;61829;53.286;10.434;2024-03-22T04:54:03;101272.63;;;10.40;86.38
73558;BME280;61829;53.286;10.434;2024-03-22T04:56:47;101257.97;;;10.43;86.36
73558;BME280;61829;53.286;10.434;2024-03-22T04:59:32;101267.09;;;10.42;86.31
73558;BME280;61829;53.286;10.434;2024-03-22T05:02:16;101266.06;;;10.43;85.96
73558;BME280;61829;53.286;10.434;2024-03-22T05:05:01;101264.88;;;10.45;85.96
73558;BME280;61829;53.286;10.434;2024-03-22T05:07:46;101265.72;;;10.46;86.00
73558;BME280;61829;53.286;10.434;2024-03-22T05:10:32;101262.00;;;10.47;86.12
73558;BME280;61829;53.286;10.434;2024-03-22T05:13:16;101257.28;;;10.49;86.05
73558;BME280;61829;53.286;10.434;2024-03-22T05:16:08;101249.63;;;10.69;85.72
73558;BME280;61829;53.286;10.434;2024-03-22T05:18:52;101240.81;;;10.75;84.81
73558;BME280;61829;53.286;10.434;2024-03-22T05:21:40;101242.34;;;10.77;84.88
73558;BME280;61829;53.286;10.434;2024-03-22T05:24:24;101242.16;;;10.79;84.72
73558;BME280;61829;53.286;10.434;2024-03-22T05:27:09;101238.44;;;10.80;85.13
73558;BME280;61829;53.286;10.434;2024-03-22T05:29:53;101245.78;;;10.63;85.73
73558;BME280;61829;53.286;10.434;2024-03-22T05:32:38;101230.47;;;10.55;85.94
73558;BME280;61829;53.286;10.434;2024-03-22T05:35:23;101236.88;;;10.54;86.48
73558;BME280;61829;53.286;10.434;2024-03-22T05:38:07;101224.31;;;10.78;85.07
73558;BME280;61829;53.286;10.434;2024-03-22T05:40:51;101222.84;;;10.67;85.49
73558;BME280;61829;53.286;10.434;2024-03-22T05:43:36;101222.69;;;10.61;85.85
73558;BME280;61829;53.286;10.434;2024-03-22T05:46:20;101227.09;;;10.62;86.35
73558;BME280;61829;53.286;10.434;2024-03-22T05:49:05;101223.53;;;10.61;86.63
73558;BME280;61829;53.286;10.434;2024-03-22T05:51:49;101226.06;;;10.63;86.31
73558;BME280;61829;53.286;10.434;2024-03-22T05:54:34;101227.56;;;10.65;86.58
73558;BME280;61829;53.286;10.434;2024-03-22T05:57:19;101221.50;;;10.63;86.86
73558;BME280;61829;53.286;10.434;2024-03-22T06:00:05;101223.03;;;10.66;86.69
73558;BME280;61829;53.286;10.434;2024-03-22T06:03:25;101229.25;;;10.66;86.95
73558;BME280;61829;53.286;10.434;2024-03-22T06:06:10;101232.63;;;10.68;86.33
73558;BME280;61829;53.286;10.434;2024-03-22T06:08:55;101237.66;;;10.71;86.88
73558;BME280;61829;53.286;10.434;2024-03-22T06:11:41;101232.94;;;10.73;86.96
73558;BME280;61829;53.286;10.434;2024-03-22T06:14:28;101247.06;;;10.75;87.15
73558;BME280;61829;53.286;10.434;2024-03-22T06:17:13;101239.63;;;10.77;86.70
73558;BME280;61829;53.286;10.434;2024-03-22T06:19:57;101228.50;;;10.81;87.26
73558;BME280;61829;53.286;10.434;2024-03-22T06:22:42;101228.78;;;10.94;86.32
73558;BME280;61829;53.286;10.434;2024-03-22T06:25:27;101227.28;;;10.91;86.10
73558;BME280;61829;53.286;10.434;2024-03-22T06:28:11;101213.13;;;10.89;86.85
73558;BME280;61829;53.286;10.434;2024-03-22T06:30:55;101210.06;;;10.92;87.01
73558;BME280;61829;53.286;10.434;2024-03-22T06:33:40;101216.19;;;11.09;86.24
73558;BME280;61829;53.286;10.434;2024-03-22T06:36:25;101194.88;;;11.22;85.41
73558;BME280;61829;53.286;10.434;2024-03-22T06:39:10;101200.38;;;11.29;85.09
73558;BME280;61829;53.286;10.434;2024-03-22T06:41:54;101207.47;;;11.30;85.23
73558;BME280;61829;53.286;10.434;2024-03-22T06:44:47;101200.38;;;11.29;85.64
73558;BME280;61829;53.286;10.434;2024-03-22T06:47:32;101195.41;;;11.41;85.00
73558;BME280;61829;53.286;10.434;2024-03-22T06:50:16;101197.25;;;11.40;85.09
73558;BME280;61829;53.286;10.434;2024-03-22T06:53:08;101189.09;;;11.49;85.01
73558;BME280;61829;53.286;10.434;2024-03-22T06:55:54;101175.06;;;11.53;84.94
73558;BME280;61829;53.286;10.434;2024-03-22T06:58:39;101170.94;;;11.57;84.76
73558;BME280;61829;53.286;10.434;2024-03-22T07:01:24;101169.44;;;11.40;85.69
73558;BME280;61829;53.286;10.434;2024-03-22T07:04:08;101165.72;;;11.41;86.24
73558;BME280;61829;53.286;10.434;2024-03-22T07:06:52;101161.50;;;11.61;85.27
73558;BME280;61829;53.286;10.434;2024-03-22T07:09:37;101151.69;;;11.60;85.60
73558;BME280;61829;53.286;10.434;2024-03-22T07:12:22;101152.66;;;11.82;84.83
73558;BME280;61829;53.286;10.434;2024-03-22T07:15:06;101148.53;;;11.72;85.12
73558;BME280;61829;53.286;10.434;2024-03-22T07:17:51;101145.13;;;11.78;85.04
73558;BME280;61829;53.286;10.434;2024-03-22T07:20:37;101145.91;;;11.86;84.69
73558;BME280;61829;53.286;10.434;2024-03-22T07:23:24;101147.50;;;11.96;84.50
73558;BME280;61829;53.286;10.434;2024-03-22T07:26:08;101137.13;;;11.99;84.37
73558;BME280;61829;53.286;10.434;2024-03-22T07:28:53;101142.34;;;12.16;83.93
73558;BME280;61829;53.286;10.434;2024-03-22T07:31:37;101147.38;;;12.19;83.73
73558;BME280;61829;53.286;10.434;2024-03-22T07:34:22;101132.09;;;12.26;83.65
73558;BME280;61829;53.286;10.434;2024-03-22T07:37:06;101124.91;;;12.33;83.59
73558;BME280;61829;53.286;10.434;2024-03-22T07:39:51;101122.28;;;12.40;83.24
73558;BME280;61829;53.286;10.434;2024-03-22T07:42:35;101116.97;;;12.46;83.05
73558;BME280;61829;53.286;10.434;2024-03-22T07:45:20;101123.03;;;12.48;82.43
73558;BME280;61829;53.286;10.434;2024-03-22T07:51:46;101128.78;;;12.81;81.01
73558;BME280;61829;53.286;10.434;2024-03-22T07:54:30;101125.38;;;12.73;81.61
73558;BME280;61829;53.286;10.434;2024-03-22T07:57:15;101124.66;;;12.64;81.97
73558;BME280;61829;53.286;10.434;2024-03-22T07:59:59;101124.19;;;12.61;82.05
73558;BME280;61829;53.286;10.434;2024-03-22T08:02:52;101128.13;;;12.58;82.40
73558;BME280;61829;53.286;10.434;2024-03-22T08:05:36;101130.00;;;12.57;82.49
73558;BME280;61829;53.286;10.434;2024-03-22T08:08:20;101126.44;;;12.57;82.53
73558;BME280;61829;53.286;10.434;2024-03-22T08:11:05;101128.28;;;12.56;82.35
73558;BME280;61829;53.286;10.434;2024-03-22T08:13:49;101126.56;;;12.70;82.03
73558;BME280;61829;53.286;10.434;2024-03-22T08:16:34;101121.28;;;12.62;81.95
73558;BME280;61829;53.286;10.434;2024-03-22T08:19:18;101127.06;;;12.59;82.71
73558;BME280;61829;53.286;10.434;2024-03-22T08:22:03;101136.03;;;12.59;82.66
73558;BME280;61829;53.286;10.434;2024-03-22T08:24:48;101134.34;;;12.58;82.79
73558;BME280;61829;53.286;10.434;2024-03-22T08:27:33;101125.34;;;12.51;83.02
73558;BME280;61829;53.286;10.434;2024-03-22T08:30:20;101115.38;;;12.73;81.87
73558;BME280;61829;53.286;10.434;2024-03-22T08:33:11;101113.53;;;12.74;82.05
73558;BME280;61829;53.286;10.434;2024-03-22T08:36:14;101114.16;;;12.76;83.37
73558;BME280;61829;53.286;10.434;2024-03-22T08:38:59;101113.72;;;12.72;84.44
73558;BME280;61829;53.286;10.434;2024-03-22T08:41:43;101124.25;;;12.67;84.96
73558;BME280;61829;53.286;10.434;2024-03-22T08:44:28;101120.22;;;12.42;86.69
73558;BME280;61829;53.286;10.434;2024-03-22T08:47:13;101120.16;;;12.35;87.86
73558;BME280;61829;53.286;10.434;2024-03-22T08:49:57;101116.81;;;12.33;88.89
73558;BME280;61829;53.286;10.434;2024-03-22T08:52:42;101112.81;;;12.29;89.39
73558;BME280;61829;53.286;10.434;2024-03-22T08:55:27;101105.91;;;12.26;89.39
73558;BME280;61829;53.286;10.434;2024-03-22T08:58:11;101108.97;;;12.38;89.55
73558;BME280;61829;53.286;10.434;2024-03-22T09:00:55;101093.91;;;12.50;89.07
73558;BME280;61829;53.286;10.434;2024-03-22T09:03:44;101094.75;;;12.51;89.41
73558;BME280;61829;53.286;10.434;2024-03-22T09:06:30;101089.94;;;12.46;88.88
73558;BME280;61829;53.286;10.434;2024-03-22T09:09:15;101086.03;;;12.49;89.15
73558;BME280;61829;53.286;10.434;2024-03-22T09:12:01;101092.25;;;12.49;88.84
73558;BME280;61829;53.286;10.434;2024-03-22T09:14:46;101080.34;;;12.44;89.38
73558;BME280;61829;53.286;10.434;2024-03-22T09:17:30;101087.69;;;12.50;89.21
73558;BME280;61829;53.286;10.434;2024-03-22T09:24:08;101081.44;;;12.49;89.37
73558;BME280;61829;53.286;10.434;2024-03-22T09:26:53;101079.56;;;12.50;89.67
73558;BME280;61829;53.286;10.434;2024-03-22T09:29:38;101070.63;;;12.49;89.44
73558;BME280;61829;53.286;10.434;2024-03-22T09:32:22;101074.38;;;12.48;89.42
73558;BME280;61829;53.286;10.434;2024-03-22T09:35:07;101064.78;;;12.46;89.33
73558;BME280;61829;53.286;10.434;2024-03-22T09:37:53;101066.63;;;12.45;89.78
73558;BME280;61829;53.286;10.434;2024-03-22T09:40:38;101054.59;;;12.48;90.10
73558;BME280;61829;53.286;10.434;2024-03-22T09:43:27;101046.97;;;12.51;90.10
73558;BME280;61829;53.286;10.434;2024-03-22T09:46:21;101042.00;;;12.55;90.14
73558;BME280;61829;53.286;10.434;2024-03-22T09:49:10;101048.88;;;12.57;90.04
73558;BME280;61829;53.286;10.434;2024-03-22T09:51:59;101043.28;;;12.59;89.73
73558;BME280;61829;53.286;10.434;2024-03-22T09:54:44;101039.75;;;12.58;89.68
73558;BME280;61829;53.286;10.434;2024-03-22T09:57:29;101033.69;;;12.56;89.78
73558;BME280;61829;53.286;10.434;2024-03-22T10:00:15;101030.78;;;12.58;89.72
73558;BME280;61829;53.286;10.434;2024-03-22T10:03:01;101026.22;;;12.58;89.70
73558;BME280;61829;53.286;10.434;2024-03-22T10:05:46;101018.06;;;12.52;89.65
73558;BME280;61829;53.286;10.434;2024-03-22T10:08:32;101023.88;;;12.34;90.35
73558;BME280;61829;53.286;10.434;2024-03-22T10:11:16;101028.78;;;12.24;91.16
73558;BME280;61829;53.286;10.434;2024-03-22T10:14:02;101019.56;;;12.40;90.74
73558;BME280;61829;53.286;10.434;2024-03-22T10:16:47;101024.03;;;12.47;90.62
73558;BME280;61829;53.286;10.434;2024-03-22T10:19:31;101020.88;;;12.44;90.77
73558;BME280;61829;53.286;10.434;2024-03-22T10:22:16;101011.16;;;12.28;91.34
73558;BME280;61829;53.286;10.434;2024-03-22T10:25:04;101002.78;;;12.44;91.14
73558;BME280;61829;53.286;10.434;2024-03-22T10:27:50;100999.97;;;12.52;90.34
73558;BME280;61829;53.286;10.434;2024-03-22T10:30:36;101005.38;;;12.52;89.99
73558;BME280;61829;53.286;10.434;2024-03-22T10:33:26;101002.53;;;12.39;90.14
73558;BME280;61829;53.286;10.434;2024-03-22T10:36:11;100998.69;;;12.48;89.31
73558;BME280;61829;53.286;10.434;2024-03-22T10:38:58;101004.53;;;12.52;88.83
73558;BME280;61829;53.286;10.434;2024-03-22T10:41:45;101000.16;;;12.51;88.64
73558;BME280;61829;53.286;10.434;2024-03-22T10:44:29;101003.09;;;12.56;88.67
73558;BME280;61829;53.286;10.434;2024-03-22T10:47:17;101007.50;;;12.57;88.83
73558;BME280;61829;53.286;10.434;2024-03-22T10:50:10;101000.63;;;12.54;88.99
73558;BME280;61829;53.286;10.434;2024-03-22T10:53:02;101000.22;;;12.57;89.01
73558;BME280;61829;53.286;10.434;2024-03-22T10:55:51;100998.34;;;12.58;88.89
73558;BME280;61829;53.286;10.434;2024-03-22T10:58:39;100992.94;;;12.58;89.16
73558;BME280;61829;53.286;10.434;2024-03-22T11:01:26;101001.25;;;12.56;89.35
73558;BME280;61829;53.286;10.434;2024-03-22T11:04:11;100995.22;;;12.54;89.19
73558;BME280;61829;53.286;10.434;2024-03-22T11:07:05;100991.41;;;12.49;90.21
73558;BME280;61829;53.286;10.434;2024-03-22T11:09:52;100987.34;;;12.59;89.91
73558;BME280;61829;53.286;10.434;2024-03-22T11:12:40;100982.13;;;12.58;90.66
73558;BME280;61829;53.286;10.434;2024-03-22T11:15:25;100976.53;;;12.59;90.52
73558;BME280;61829;53.286;10.434;2024-03-22T11:18:09;100980.41;;;12.50;91.03
73558;BME280;61829;53.286;10.434;2024-03-22T11:20:54;100978.53;;;12.51;91.20
73558;BME280;61829;53.286;10.434;2024-03-22T11:23:45;100971.50;;;12.56;91.55
73558;BME280;61829;53.286;10.434;2024-03-22T11:26:30;100978.84;;;12.41;92.43
73558;BME280;61829;53.286;10.434;2024-03-22T11:29:14;100970.81;;;12.48;92.38
73558;BME280;61829;53.286;10.434;2024-03-22T11:31:59;100974.59;;;12.53;92.06
73558;BME280;61829;53.286;10.434;2024-03-22T11:34:44;100969.00;;;12.55;92.11
73558;BME280;61829;53.286;10.434;2024-03-22T11:37:31;100970.75;;;12.63;91.88
73558;BME280;61829;53.286;10.434;2024-03-22T11:40:17;100977.06;;;12.48;92.66
73558;BME280;61829;53.286;10.434;2024-03-22T11:43:03;100979.56;;;12.50;92.67
73558;BME280;61829;53.286;10.434;2024-03-22T11:45:48;100975.13;;;12.42;93.45
73558;BME280;61829;53.286;10.434;2024-03-22T11:48:39;100965.72;;;12.38;93.68
73558;BME280;61829;53.286;10.434;2024-03-22T11:51:24;100973.00;;;12.38;94.12
73558;BME280;61829;53.286;10.434;2024-03-22T11:54:09;100958.19;;;12.33;94.19
73558;BME280;61829;53.286;10.434;2024-03-22T11:56:56;100968.13;;;12.26;94.27
73558;BME280;61829;53.286;10.434;2024-03-22T11:59:41;100961.03;;;12.25;94.36
73558;BME280;61829;53.286;10.434;2024-03-22T12:02:25;100958.31;;;12.25;94.48
73558;BME280;61829;53.286;10.434;2024-03-22T12:05:11;100961.81;;;12.19;94.82
73558;BME280;61829;53.286;10.434;2024-03-22T12:07:55;100952.03;;;12.18;94.97
73558;BME280;61829;53.286;10.434;2024-03-22T12:10:45;100956.41;;;12.19;94.93
73558;BME280;61829;53.286;10.434;2024-03-22T12:13:30;100953.50;;;12.21;95.12
73558;BME280;61829;53.286;10.434;2024-03-22T12:16:14;100953.50;;;12.21;95.13
73558;BME280;61829;53.286;10.434;2024-03-22T12:18:59;100943.09;;;12.18;95.51
73558;BME280;61829;53.286;10.434;2024-03-22T12:21:43;100936.72;;;12.25;95.50
73558;BME280;61829;53.286;10.434;2024-03-22T12:24:28;100932.16;;;12.26;94.90
73558;BME280;61829;53.286;10.434;2024-03-22T12:27:13;100928.41;;;12.27;94.29
73558;BME280;61829;53.286;10.434;2024-03-22T12:29:57;100928.94;;;12.37;93.90
73558;BME280;61829;53.286;10.434;2024-03-22T12:32:43;100916.16;;;12.52;92.35
73558;BME280;61829;53.286;10.434;2024-03-22T12:35:27;100926.69;;;12.69;92.71
73558;BME280;61829;53.286;10.434;2024-03-22T12:38:12;100913.75;;;12.64;91.98
73558;BME280;61829;53.286;10.434;2024-03-22T12:40:57;100905.78;;;12.84;90.46
73558;BME280;61829;53.286;10.434;2024-03-22T12:43:42;100912.50;;;12.88;89.35
73558;BME280;61829;53.286;10.434;2024-03-22T12:46:27;100908.53;;;12.91;89.04
73558;BME280;61829;53.286;10.434;2024-03-22T12:49:12;100914.34;;;12.88;88.87
73558;BME280;61829;53.286;10.434;2024-03-22T12:51:56;100912.78;;;12.72;89.68
73558;BME280;61829;53.286;10.434;2024-03-22T12:54:42;100911.34;;;12.76;89.66
73558;BME280;61829;53.286;10.434;2024-03-22T12:57:26;100910.94;;;12.79;88.74
73558;BME280;61829;53.286;10.434;2024-03-22T13:00:11;100915.13;;;12.81;88.73
73558;BME280;61829;53.286;10.434;2024-03-22T13:03:02;100913.91;;;12.84;88.51
73558;BME280;61829;53.286;10.434;2024-03-22T13:05:51;100919.22;;;12.71;88.08
73558;BME280;61829;53.286;10.434;2024-03-22T13:08:35;100913.44;;;12.74;88.27
73558;BME280;61829;53.286;10.434;2024-03-22T13:11:20;100913.81;;;12.71;87.92
73558;BME280;61829;53.286;10.434;2024-03-22T13:14:04;100913.31;;;12.61;88.98
73558;BME280;61829;53.286;10.434;2024-03-22T13:16:49;100905.47;;;12.66;88.21
73558;BME280;61829;53.286;10.434;2024-03-22T13:19:33;100903.09;;;12.84;87.46
73558;BME280;61829;53.286;10.434;2024-03-22T13:22:19;100902.69;;;12.87;86.45
73558;BME280;61829;53.286;10.434;2024-03-22T13:25:05;100903.97;;;12.91;86.22
73558;BME280;61829;53.286;10.434;2024-03-22T13:27:51;100894.84;;;12.99;85.67
73558;BME280;61829;53.286;10.434;2024-03-22T13:30:36;100889.44;;;12.99;84.81
73558;BME280;61829;53.286;10.434;2024-03-22T13:33:21;100882.63;;;13.10;84.56
73558;BME280;61829;53.286;10.434;2024-03-22T13:36:06;100889.53;;;13.19;84.30
73558;BME280;61829;53.286;10.434;2024-03-22T13:38:50;100889.13;;;13.15;83.62
73558;BME280;61829;53.286;10.434;2024-03-22T13:41:34;100881.41;;;13.12;83.79
73558;BME280;61829;53.286;10.434;2024-03-22T13:44:19;100879.28;;;13.08;83.97
73558;BME280;61829;53.286;10.434;2024-03-22T13:47:03;100874.75;;;13.08;84.02
73558;BME280;61829;53.286;10.434;2024-03-22T13:49:49;100877.44;;;13.08;84.51
73558;BME280;61829;53.286;10.434;2024-03-22T13:52:33;100876.97;;;12.98;84.43
73558;BME280;61829;53.286;10.434;2024-03-22T13:55:18;100873.59;;;12.96;84.25
73558;BME280;61829;53.286;10.434;2024-03-22T13:58:03;100878.19;;;12.95;84.55
73558;BME280;61829;53.286;10.434;2024-03-22T14:00:48;100867.63;;;13.00;84.14
73558;BME280;61829;53.286;10.434;2024-03-22T14:03:32;100869.72;;;13.05;83.82
73558;BME280;61829;53.286;10.434;2024-03-22T14:06:18;100870.41;;;13.14;83.97
73558;BME280;61829;53.286;10.434;2024-03-22T14:09:02;100871.22;;;13.14;83.52
73558;BME280;61829;53.286;10.434;2024-03-22T14:11:48;100866.25;;;13.18;83.57
73558;BME280;61829;53.286;10.434;2024-03-22T14:14:32;100865.59;;;13.16;83.29
73558;BME280;61829;53.286;10.434;2024-03-22T14:17:18;100858.09;;;13.11;83.41
73558;BME280;61829;53.286;10.434;2024-03-22T14:20:03;100856.56;;;13.02;83.61
73558;BME280;61829;53.286;10.434;2024-03-22T14:22:56;100863.28;;;13.13;84.05
73558;BME280;61829;53.286;10.434;2024-03-22T14:25:40;100853.75;;;13.17;83.80
73558;BME280;61829;53.286;10.434;2024-03-22T14:28:25;100860.00;;;13.24;83.83
73558;BME280;61829;53.286;10.434;2024-03-22T14:31:12;100856.47;;;13.23;84.05
73558;BME280;61829;53.286;10.434;2024-03-22T14:33:57;100853.22;;;13.28;83.82